Time;durP1;ratioP1;P1;durP2;ratioP2;P2;SDS_P1;SDS_P2;PMS_P1;PMS_P2;Temp;Humidity;BMP_temperature;BMP_pressure;BME280_temperature;BME280_humidity;BME280_pressure;Samples;Min_cycle;Max_cycle;Signal;HPM_P1;HPM_P2
2020/12/11 00:02:09;;;;;;;31.90;20.25;;;1.40;94.90;;;;;;5047540;28;20476;-42
2020/12/11 00:04:34;;;;;;;29.77;19.60;;;1.30;94.90;;;;;;5046804;28;20025;-43
2020/12/11 00:07:01;;;;;;;27.85;18.73;;;1.30;94.90;;;;;;5046228;28;20064;-43
2020/12/11 00:09:27;;;;;;;28.55;19.98;;;1.30;95.00;;;;;;5047295;28;20131;-44
2020/12/11 00:11:53;;;;;;;27.02;18.83;;;1.20;95.00;;;;;;5048102;28;20025;-42
2020/12/11 00:14:18;;;;;;;31.80;18.95;;;1.20;95.00;;;;;;5047587;28;20025;-43
2020/12/11 00:16:44;;;;;;;28.27;19.25;;;1.20;95.00;;;;;;5047837;28;20396;-43
2020/12/11 00:19:10;;;;;;;27.75;19.23;;;1.30;95.10;;;;;;5047403;28;20029;-43
2020/12/11 00:21:39;;;;;;;28.45;19.55;;;1.20;95.10;;;;;;5047350;28;20029;-44
2020/12/11 00:24:05;;;;;;;28.83;20.38;;;1.30;95.10;;;;;;5048242;28;20104;-43
2020/12/11 00:26:33;;;;;;;30.10;19.55;;;1.30;95.10;;;;;;5047532;28;20124;-43
2020/12/11 00:28:59;;;;;;;29.88;20.23;;;1.30;95.10;;;;;;5047530;28;20049;-43
2020/12/11 00:31:25;;;;;;;32.90;20.27;;;1.40;95.00;;;;;;5047412;28;20064;-44
2020/12/11 00:33:51;;;;;;;29.15;20.92;;;1.40;95.00;;;;;;5047861;28;20119;-43
2020/12/11 00:36:17;;;;;;;26.27;18.75;;;1.40;94.90;;;;;;5046867;28;20032;-43
2020/12/11 00:38:43;;;;;;;29.50;19.50;;;1.40;94.90;;;;;;5047665;28;20024;-43
2020/12/11 00:41:09;;;;;;;26.08;18.50;;;1.50;94.90;;;;;;5047282;28;20456;-43
2020/12/11 00:43:35;;;;;;;28.65;18.50;;;1.40;94.80;;;;;;5047427;28;20086;-43
2020/12/11 00:46:00;;;;;;;31.73;21.30;;;1.50;94.90;;;;;;5047568;28;20039;-43
2020/12/11 00:48:26;;;;;;;27.05;18.83;;;1.50;94.80;;;;;;5047080;28;20033;-43
2020/12/11 00:50:51;;;;;;;26.98;19.73;;;1.50;94.80;;;;;;5029313;28;509489;-43
2020/12/11 00:53:17;;;;;;;26.13;18.67;;;1.50;94.80;;;;;;5047847;28;20798;-43
2020/12/11 00:55:42;;;;;;;26.52;18.40;;;1.50;94.70;;;;;;5048582;28;20068;-43
2020/12/11 00:58:09;;;;;;;29.15;19.73;;;1.50;94.70;;;;;;5047325;28;20063;-43
2020/12/11 01:00:34;;;;;;;28.52;18.63;;;1.60;94.70;;;;;;5048202;28;20363;-42
2020/12/11 01:03:00;;;;;;;27.77;19.27;;;1.50;94.70;;;;;;5048521;28;20511;-44
2020/12/11 01:05:26;;;;;;;25.90;18.38;;;1.60;94.70;;;;;;5047468;28;20222;-42
2020/12/11 01:07:51;;;;;;;23.10;16.50;;;1.60;94.70;;;;;;5048005;28;20672;-42
2020/12/11 01:10:17;;;;;;;25.70;17.88;;;1.60;94.70;;;;;;5046817;28;20044;-43
2020/12/11 01:12:42;;;;;;;27.75;19.65;;;1.60;94.70;;;;;;5047661;28;20025;-43
2020/12/11 01:15:08;;;;;;;27.02;19.25;;;1.60;94.70;;;;;;5047531;28;20055;-44
2020/12/11 01:17:33;;;;;;;30.70;21.05;;;1.60;94.60;;;;;;5048044;28;20017;-43
2020/12/11 01:19:59;;;;;;;27.23;19.02;;;1.60;94.60;;;;;;5047498;28;20051;-42
2020/12/11 01:22:24;;;;;;;29.77;20.67;;;1.60;94.60;;;;;;5047173;28;20029;-43
2020/12/11 01:24:50;;;;;;;31.23;20.60;;;1.60;94.60;;;;;;5047826;28;20056;-44
2020/12/11 01:27:15;;;;;;;29.67;19.85;;;1.60;94.50;;;;;;5047162;28;20021;-44
2020/12/11 01:29:41;;;;;;;28.33;19.75;;;1.60;94.50;;;;;;5047763;28;20037;-44
2020/12/11 01:32:06;;;;;;;28.00;19.70;;;1.60;94.50;;;;;;5047146;28;20032;-44
2020/12/11 01:34:32;;;;;;;31.52;20.60;;;1.60;94.40;;;;;;5047252;28;20712;-42
2020/12/11 01:37:03;;;;;;;28.10;20.25;;;1.60;94.40;;;;;;5047599;28;20021;-42
2020/12/11 01:39:28;;;;;;;31.60;20.98;;;1.50;94.30;;;;;;5047023;28;20027;-43
2020/12/11 01:41:54;;;;;;;37.60;22.77;;;1.50;94.30;;;;;;5047584;28;20029;-42
2020/12/11 01:44:19;;;;;;;31.35;21.70;;;1.50;94.30;;;;;;5046774;28;20116;-43
2020/12/11 01:46:48;;;;;;;34.20;22.77;;;1.50;94.30;;;;;;5046938;28;20060;-43
2020/12/11 01:49:14;;;;;;;32.30;21.52;;;1.50;94.30;;;;;;5046849;28;20162;-43
2020/12/11 01:51:39;;;;;;;32.30;21.30;;;1.50;94.30;;;;;;5047573;28;20131;-43
2020/12/11 01:54:05;;;;;;;30.17;20.88;;;1.50;94.30;;;;;;5046968;28;20503;-43
2020/12/11 01:56:39;;;;;;;33.28;22.48;;;1.50;94.30;;;;;;5047007;28;20119;-43
2020/12/11 01:59:12;;;;;;;30.98;21.95;;;1.40;94.30;;;;;;5047279;28;20441;-42
2020/12/11 02:01:37;;;;;;;31.25;20.98;;;1.40;94.30;;;;;;5047117;28;20025;-43
2020/12/11 02:04:04;;;;;;;34.17;23.00;;;1.30;94.30;;;;;;5047185;28;20036;-43
2020/12/11 02:06:30;;;;;;;33.13;21.92;;;1.40;94.40;;;;;;5046743;28;20029;-42
2020/12/11 02:08:56;;;;;;;33.25;21.50;;;1.30;94.40;;;;;;5046982;28;20032;-43
2020/12/11 02:11:23;;;;;;;37.22;23.98;;;1.30;94.40;;;;;;5046282;28;20358;-43
2020/12/11 02:13:49;;;;;;;33.47;22.27;;;1.40;94.40;;;;;;5046922;28;20613;-44
2020/12/11 02:16:22;;;;;;;33.25;22.17;;;1.40;94.40;;;;;;5046375;28;20090;-42
2020/12/11 02:18:49;;;;;;;33.53;22.00;;;1.40;94.40;;;;;;5046949;28;20029;-43
2020/12/11 02:21:15;;;;;;;35.92;22.90;;;1.40;94.40;;;;;;5045694;28;20547;-43
2020/12/11 02:23:44;;;;;;;31.80;21.88;;;1.30;94.40;;;;;;5046954;28;20029;-43
2020/12/11 02:26:10;;;;;;;37.65;22.50;;;1.30;94.40;;;;;;5046192;28;20478;-43
2020/12/11 02:28:36;;;;;;;32.85;21.35;;;1.30;94.40;;;;;;5046807;28;20023;-43
2020/12/11 02:31:03;;;;;;;29.98;20.33;;;1.30;94.50;;;;;;5046587;28;20037;-43
2020/12/11 02:33:29;;;;;;;33.17;21.65;;;1.30;94.50;;;;;;5046294;28;20075;-42
2020/12/11 02:35:55;;;;;;;32.22;21.73;;;1.20;94.50;;;;;;5046224;28;20041;-43
2020/12/11 02:38:21;;;;;;;31.35;20.15;;;1.20;94.50;;;;;;5046442;28;20031;-42
2020/12/11 02:40:55;;;;;;;30.33;20.40;;;1.20;94.60;;;;;;5046627;28;20037;-43
2020/12/11 02:43:22;;;;;;;27.35;18.45;;;1.20;94.60;;;;;;5045962;28;20079;-42
2020/12/11 02:45:50;;;;;;;29.23;20.02;;;1.20;94.60;;;;;;5047090;28;20032;-43
2020/12/11 02:48:16;;;;;;;29.50;19.98;;;1.20;94.60;;;;;;5046267;28;20021;-43
2020/12/11 02:50:41;;;;;;;29.85;20.08;;;1.10;94.70;;;;;;5045943;28;20091;-43
2020/12/11 02:53:07;;;;;;;27.77;18.63;;;1.10;94.90;;;;;;5046484;28;20456;-43
2020/12/11 02:55:36;;;;;;;27.05;18.52;;;1.10;94.70;;;;;;5046534;28;20036;-43
2020/12/11 02:58:02;;;;;;;25.10;16.88;;;1.10;94.70;;;;;;5046311;28;20036;-43
2020/12/11 03:00:28;;;;;;;27.35;17.75;;;1.10;94.70;;;;;;5046326;28;20087;-43
2020/12/11 03:02:53;;;;;;;26.50;17.63;;;1.00;94.70;;;;;;5046643;28;20480;-43
2020/12/11 03:05:19;;;;;;;27.92;17.95;;;1.00;94.80;;;;;;5045457;28;20029;-43
2020/12/11 03:07:44;;;;;;;33.80;20.25;;;1.00;94.80;;;;;;5046646;28;20082;-43
2020/12/11 03:10:10;;;;;;;29.45;19.33;;;0.90;94.80;;;;;;5045714;28;20029;-42
2020/12/11 03:12:36;;;;;;;29.90;19.83;;;0.90;94.90;;;;;;5046493;28;20104;-43
2020/12/11 03:15:02;;;;;;;24.98;17.50;;;0.90;94.90;;;;;;5046461;28;20032;-43
2020/12/11 03:17:27;;;;;;;25.55;17.17;;;0.90;94.90;;;;;;5045356;28;20414;-43
2020/12/11 03:19:53;;;;;;;24.88;17.65;;;0.90;95.00;;;;;;5046701;28;20041;-43
2020/12/11 03:22:18;;;;;;;28.23;18.27;;;0.90;95.00;;;;;;5045730;28;20025;-44
2020/12/11 03:24:43;;;;;;;29.67;19.10;;;0.90;95.00;;;;;;5045761;28;20850;-44
2020/12/11 03:27:10;;;;;;;26.30;18.17;;;0.90;95.00;;;;;;5046151;28;20112;-43
2020/12/11 03:29:35;;;;;;;28.33;18.45;;;0.90;95.00;;;;;;5046194;28;20055;-44
2020/12/11 03:32:01;;;;;;;29.05;18.15;;;0.90;95.10;;;;;;5045598;28;20037;-44
2020/12/11 03:34:26;;;;;;;25.17;17.20;;;0.90;95.10;;;;;;5048500;28;20036;-44
2020/12/11 03:36:54;;;;;;;24.95;17.73;;;0.90;95.10;;;;;;5049797;28;20025;-43
2020/12/11 03:39:20;;;;;;;25.38;17.60;;;0.90;95.10;;;;;;5048669;28;20029;-44
2020/12/11 03:41:52;;;;;;;28.00;19.20;;;0.90;95.10;;;;;;5049892;28;20032;-43
2020/12/11 03:44:18;;;;;;;31.98;19.27;;;0.90;95.00;;;;;;5049599;28;20032;-44
2020/12/11 03:46:44;;;;;;;31.23;20.73;;;0.90;95.00;;;;;;5049288;28;20033;-43
2020/12/11 03:49:10;;;;;;;31.90;20.58;;;0.90;95.00;;;;;;5049039;28;20079;-42
2020/12/11 03:51:35;;;;;;;28.77;20.08;;;0.90;95.10;;;;;;5049405;28;20053;-43
2020/12/11 03:54:01;;;;;;;30.45;20.77;;;0.90;95.10;;;;;;5049369;28;20025;-43
2020/12/11 03:56:26;;;;;;;30.77;21.23;;;0.90;95.10;;;;;;5049252;28;20025;-44
2020/12/11 03:58:52;;;;;;;31.63;20.60;;;0.90;95.10;;;;;;5049792;28;20549;-43
2020/12/11 04:01:17;;;;;;;32.80;22.17;;;0.90;95.10;;;;;;5048703;28;20025;-43
2020/12/11 04:03:43;;;;;;;33.78;22.08;;;0.90;95.10;;;;;;5049191;28;20021;-43
2020/12/11 04:06:10;;;;;;;32.42;21.27;;;0.90;95.10;;;;;;5049098;28;20025;-44
2020/12/11 04:08:37;;;;;;;29.15;20.27;;;0.90;95.10;;;;;;5049043;28;20029;-42
2020/12/11 04:11:05;;;;;;;33.25;22.80;;;0.90;95.10;;;;;;5049354;28;20041;-42
2020/12/11 04:13:30;;;;;;;36.40;21.38;;;0.90;95.10;;;;;;5048821;28;20025;-43
2020/12/11 04:15:56;;;;;;;34.70;22.48;;;0.90;95.10;;;;;;5049076;28;20025;-43
2020/12/11 04:18:22;;;;;;;33.08;21.95;;;0.90;95.10;;;;;;5048540;28;20032;-43
2020/12/11 04:20:47;;;;;;;36.70;23.15;;;0.90;95.10;;;;;;5048682;28;20098;-42
2020/12/11 04:23:13;;;;;;;34.60;22.30;;;0.90;95.10;;;;;;5048809;28;20104;-44
2020/12/11 04:25:38;;;;;;;34.97;23.70;;;0.90;95.10;;;;;;5049021;28;20616;-44
2020/12/11 04:28:04;;;;;;;34.88;23.23;;;1.00;95.10;;;;;;5048717;28;20029;-43
2020/12/11 04:30:29;;;;;;;37.28;23.70;;;1.00;95.10;;;;;;5048306;28;20044;-44
2020/12/11 04:32:54;;;;;;;34.95;22.48;;;0.90;95.10;;;;;;5048941;28;20491;-43
2020/12/11 04:35:20;;;;;;;35.47;21.73;;;0.90;95.10;;;;;;5048147;28;20040;-44
2020/12/11 04:37:47;;;;;;;36.35;23.55;;;1.00;95.20;;;;;;5048935;28;20041;-44
2020/12/11 04:40:15;;;;;;;36.60;24.73;;;1.00;95.20;;;;;;5048166;28;20041;-42
2020/12/11 04:42:44;;;;;;;38.17;25.35;;;1.00;95.20;;;;;;5048588;28;20025;-43
2020/12/11 04:45:10;;;;;;;37.17;24.52;;;1.00;95.20;;;;;;5047903;28;20494;-44
2020/12/11 04:47:36;;;;;;;39.17;25.25;;;1.10;95.20;;;;;;5048748;28;20132;-42
2020/12/11 04:50:02;;;;;;;39.63;27.58;;;1.10;95.20;;;;;;5048090;28;20044;-43
2020/12/11 04:52:35;;;;;;;38.22;25.23;;;1.10;95.20;;;;;;5047645;28;20052;-43
2020/12/11 04:55:02;;;;;;;37.60;25.85;;;1.10;95.20;;;;;;5048908;28;20033;-43
2020/12/11 04:57:32;;;;;;;39.75;26.10;;;1.10;95.10;;;;;;5047613;28;20028;-43
2020/12/11 04:59:58;;;;;;;39.13;26.70;;;1.20;95.10;;;;;;5048315;28;20461;-43
2020/12/11 05:02:26;;;;;;;40.08;25.77;;;1.20;95.10;;;;;;5047850;28;20115;-44
2020/12/11 05:04:53;;;;;;;42.08;27.27;;;1.30;95.00;;;;;;5048025;28;20066;-43
2020/12/11 05:07:19;;;;;;;39.47;25.90;;;1.30;95.00;;;;;;5047883;28;20495;-43
2020/12/11 05:09:54;;;;;;;38.97;25.73;;;1.30;95.00;;;;;;5048111;28;20032;-43
2020/12/11 05:12:20;;;;;;;38.13;26.00;;;1.30;94.90;;;;;;5047451;28;20033;-43
2020/12/11 05:14:45;;;;;;;38.80;25.77;;;1.30;94.90;;;;;;5047940;28;20021;-44
2020/12/11 05:17:11;;;;;;;41.33;26.02;;;1.30;94.80;;;;;;5047327;28;20072;-44
2020/12/11 05:19:51;;;;;;;36.33;24.73;;;1.30;94.80;;;;;;5048019;28;20031;-43
2020/12/11 05:22:18;;;;;;;34.47;22.60;;;1.30;94.80;;;;;;5047745;28;20056;-42
2020/12/11 05:24:46;;;;;;;38.80;25.52;;;1.30;94.80;;;;;;5047308;28;20104;-43
2020/12/11 05:27:29;;;;;;;37.83;25.05;;;1.30;94.80;;;;;;5047369;28;20040;-43
2020/12/11 05:29:59;;;;;;;37.95;25.52;;;1.40;94.80;;;;;;5047865;28;20087;-43
2020/12/11 05:32:34;;;;;;;39.38;24.52;;;1.40;94.80;;;;;;5047046;28;20036;-43
2020/12/11 05:34:59;;;;;;;41.63;26.52;;;1.30;94.80;;;;;;5047769;28;20451;-43
2020/12/11 05:37:25;;;;;;;40.97;27.60;;;1.40;94.90;;;;;;5046872;28;20017;-43
2020/12/11 05:39:50;;;;;;;40.53;26.77;;;1.50;94.90;;;;;;5047149;28;20024;-44
2020/12/11 05:42:16;;;;;;;39.55;25.52;;;1.50;94.80;;;;;;5047446;28;20033;-43
2020/12/11 05:44:41;;;;;;;37.33;25.35;;;1.60;94.70;;;;;;5047466;28;20039;-42
2020/12/11 05:47:20;;;;;;;40.40;26.42;;;1.60;94.70;;;;;;5047085;28;20021;-43
2020/12/11 05:49:46;;;;;;;39.47;25.10;;;1.70;94.60;;;;;;5047367;28;20127;-44
2020/12/11 05:52:13;;;;;;;40.40;26.75;;;1.80;94.50;;;;;;5046177;28;20085;-44
2020/12/11 05:54:47;;;;;;;39.80;26.38;;;1.80;94.30;;;;;;5047491;28;20032;-43
2020/12/11 05:57:15;;;;;;;37.92;26.70;;;1.80;94.20;;;;;;5046263;28;20029;-44
2020/12/11 05:59:41;;;;;;;34.53;24.40;;;1.90;94.20;;;;;;5046723;28;20544;-43
2020/12/11 06:02:07;;;;;;;40.22;25.80;;;1.90;94.20;;;;;;5047058;28;20068;-44
2020/12/11 06:04:33;;;;;;;39.10;26.83;;;1.90;94.10;;;;;;5047482;28;20106;-43
2020/12/11 06:06:59;;;;;;;40.40;26.55;;;1.90;94.10;;;;;;5046652;28;20021;-44
2020/12/11 06:09:44;;;;;;;39.63;26.63;;;2.00;94.00;;;;;;5046953;28;20024;-43
2020/12/11 06:12:11;;;;;;;35.72;24.42;;;2.00;94.00;;;;;;5046849;28;20025;-42
2020/12/11 06:15:00;;;;;;;38.35;25.80;;;2.00;93.90;;;;;;5046855;28;20032;-42
2020/12/11 06:17:27;;;;;;;34.65;23.48;;;2.00;93.90;;;;;;5046245;28;20021;-43
2020/12/11 06:19:55;;;;;;;38.33;25.23;;;2.00;93.90;;;;;;5047398;28;20036;-42
2020/12/11 06:22:21;;;;;;;40.17;26.75;;;2.10;94.00;;;;;;5046167;28;20037;-44
2020/12/11 06:24:47;;;;;;;35.55;24.75;;;2.10;93.90;;;;;;5046800;28;20470;-43
2020/12/11 06:27:13;;;;;;;35.63;25.30;;;2.10;93.80;;;;;;5045801;28;20094;-43
2020/12/11 06:29:40;;;;;;;39.15;26.35;;;2.10;93.80;;;;;;5046678;28;20143;-43
2020/12/11 06:32:10;;;;;;;33.55;23.02;;;2.20;93.80;;;;;;5046204;28;20541;-44
2020/12/11 06:34:36;;;;;;;34.40;23.88;;;2.20;93.80;;;;;;5046697;28;20052;-44
2020/12/11 06:37:02;;;;;;;31.80;23.27;;;2.20;93.70;;;;;;5046526;28;20021;-43
2020/12/11 06:39:42;;;;;;;35.35;22.73;;;2.20;93.70;;;;;;5046083;28;20036;-43
2020/12/11 06:42:10;;;;;;;35.70;23.45;;;2.20;93.70;;;;;;5045969;28;20086;-44
2020/12/11 06:44:36;;;;;;;35.35;24.05;;;2.30;93.70;;;;;;5046595;28;20028;-42
2020/12/11 06:47:06;;;;;;;34.15;22.83;;;2.30;93.70;;;;;;5046487;28;20724;-43
2020/12/11 06:49:32;;;;;;;34.95;23.35;;;2.30;93.60;;;;;;5046198;28;20052;-43
2020/12/11 06:51:57;;;;;;;34.30;23.52;;;2.30;93.50;;;;;;5045884;28;20412;-44
2020/12/11 06:54:23;;;;;;;32.08;22.95;;;2.30;93.50;;;;;;5047203;28;20064;-43
2020/12/11 06:56:56;;;;;;;33.00;22.92;;;2.30;93.50;;;;;;5046044;28;20032;-43
2020/12/11 06:59:23;;;;;;;34.67;23.25;;;2.30;93.50;;;;;;5042870;28;20032;-43
2020/12/11 07:01:52;;;;;;;34.35;22.95;;;2.30;93.40;;;;;;5044979;28;20480;-42
2020/12/11 07:04:18;;;;;;;35.83;24.05;;;2.40;93.40;;;;;;5044867;28;20526;-43
2020/12/11 07:06:51;;;;;;;32.70;23.73;;;2.40;93.30;;;;;;5046118;28;20566;-44
2020/12/11 07:09:17;;;;;;;32.97;23.45;;;2.40;93.20;;;;;;5047233;28;20412;-44
2020/12/11 07:11:43;;;;;;;33.78;22.58;;;2.40;93.20;;;;;;5049386;28;20037;-43
2020/12/11 07:14:10;;;;;;;31.52;22.05;;;2.40;93.20;;;;;;5049176;28;20039;-43
2020/12/11 07:16:43;;;;;;;29.25;20.98;;;2.40;93.20;;;;;;5064893;28;20107;-43
2020/12/11 07:19:09;;;;;;;30.90;21.05;;;2.40;93.20;;;;;;5068572;28;20038;-44
2020/12/11 07:21:36;;;;;;;31.98;21.90;;;2.40;93.20;;;;;;5069952;28;20052;-43
2020/12/11 07:24:03;;;;;;;31.50;21.67;;;2.50;93.20;;;;;;5069458;28;20535;-43
2020/12/11 07:26:29;;;;;;;31.45;20.65;;;2.50;93.20;;;;;;5062486;28;20427;-43
2020/12/11 07:29:09;;;;;;;31.70;21.85;;;2.50;93.20;;;;;;5051336;28;20025;-42
2020/12/11 07:31:45;;;;;;;30.10;20.60;;;2.50;93.20;;;;;;5050506;28;20037;-44
2020/12/11 07:34:19;;;;;;;32.78;22.65;;;2.50;93.40;;;;;;5049403;28;20045;-44
2020/12/11 07:36:54;;;;;;;32.33;22.80;;;2.50;93.10;;;;;;5050027;28;20032;-44
2020/12/11 07:39:20;;;;;;;32.30;22.25;;;2.50;93.00;;;;;;5049111;28;20024;-43
2020/12/11 07:41:47;;;;;;;31.92;23.20;;;2.50;93.10;;;;;;5049738;28;20017;-42
2020/12/11 07:44:20;;;;;;;32.92;21.90;;;2.50;93.00;;;;;;5049255;28;20029;-43
2020/12/11 07:46:46;;;;;;;31.58;21.65;;;2.60;93.00;;;;;;5049414;28;20044;-43
2020/12/11 07:49:11;;;;;;;31.17;21.52;;;2.60;93.00;;;;;;5048915;28;20020;-43
2020/12/11 07:51:50;;;;;;;31.35;22.45;;;2.60;93.00;;;;;;5049002;28;20076;-45
2020/12/11 07:54:17;;;;;;;30.88;20.83;;;2.60;92.90;;;;;;5049413;28;20056;-44
2020/12/11 07:56:43;;;;;;;28.50;20.67;;;2.60;92.90;;;;;;5049961;28;20032;-43
2020/12/11 07:59:14;;;;;;;28.52;21.27;;;2.60;92.90;;;;;;5048432;28;20044;-46
2020/12/11 08:01:42;;;;;;;33.08;23.92;;;2.60;92.90;;;;;;5049289;28;20036;-44
2020/12/11 08:04:07;;;;;;;31.95;21.75;;;2.70;92.80;;;;;;5049384;28;20032;-43
2020/12/11 08:06:33;;;;;;;30.25;20.50;;;2.70;92.80;;;;;;5049130;28;20033;-43
2020/12/11 08:09:10;;;;;;;32.80;22.33;;;2.70;92.70;;;;;;5049133;28;20021;-44
2020/12/11 08:11:35;;;;;;;32.10;22.27;;;2.70;92.70;;;;;;5049189;28;20041;-44
2020/12/11 08:14:02;;;;;;;30.08;22.63;;;2.70;92.70;;;;;;5048763;28;20055;-43
2020/12/11 08:16:29;;;;;;;30.88;21.33;;;2.80;92.70;;;;;;5048617;28;20105;-44
2020/12/11 08:18:56;;;;;;;31.00;20.77;;;2.80;92.60;;;;;;5048422;28;20033;-43
2020/12/11 08:21:31;;;;;;;29.80;21.20;;;2.80;92.60;;;;;;5048438;28;20040;-44
2020/12/11 08:23:57;;;;;;;28.52;20.77;;;2.80;92.50;;;;;;5048805;28;20028;-43
2020/12/11 08:26:24;;;;;;;33.38;22.67;;;2.80;92.50;;;;;;5048319;28;20029;-43
2020/12/11 08:29:08;;;;;;;28.83;20.05;;;2.90;92.50;;;;;;5048471;28;20029;-44
2020/12/11 08:31:52;;;;;;;31.08;21.92;;;2.80;92.50;;;;;;5048791;28;20029;-45
2020/12/11 08:34:20;;;;;;;29.33;21.17;;;2.80;92.50;;;;;;5047914;28;20021;-43
2020/12/11 08:36:46;;;;;;;31.35;22.05;;;2.90;92.40;;;;;;5049103;28;20024;-44
2020/12/11 08:39:22;;;;;;;30.40;20.90;;;2.90;92.40;;;;;;5048065;28;20033;-42
2020/12/11 08:42:27;;;;;;;29.63;20.73;;;2.90;92.30;;;;;;5048559;28;20044;-43
2020/12/11 08:50:18;;;;;;;30.35;21.55;;;2.90;92.30;;;;;;5048190;28;20060;-44
2020/12/11 08:52:43;;;;;;;29.35;21.27;;;2.90;92.30;;;;;;5049046;28;20041;-42
2020/12/11 08:55:08;;;;;;;31.17;21.60;;;2.90;92.30;;;;;;5067260;28;20021;-43
2020/12/11 08:57:34;;;;;;;31.85;21.52;;;2.90;92.30;;;;;;5067301;28;20507;-44
2020/12/11 09:00:00;;;;;;;28.40;20.65;;;2.90;92.50;;;;;;5057351;28;20115;-43
2020/12/11 09:02:26;;;;;;;28.60;20.92;;;3.00;92.40;;;;;;5056562;28;20093;-44
2020/12/11 09:04:52;;;;;;;27.65;20.27;;;3.00;92.40;;;;;;5066588;28;20511;-43
2020/12/11 09:07:18;;;;;;;30.35;21.60;;;3.00;92.40;;;;;;5067454;28;20032;-44
2020/12/11 09:09:43;;;;;;;35.17;23.23;;;3.00;92.50;;;;;;5068006;28;20016;-44
2020/12/11 09:12:08;;;;;;;35.80;24.85;;;3.00;92.50;;;;;;5067658;28;20040;-42
2020/12/11 09:14:34;;;;;;;33.90;23.17;;;3.00;92.60;;;;;;5067742;28;20471;-44
2020/12/11 09:17:00;;;;;;;30.67;22.05;;;3.00;92.70;;;;;;5068099;28;20109;-44
2020/12/11 09:19:25;;;;;;;31.58;22.60;;;3.00;92.80;;;;;;5065002;28;20024;-44
2020/12/11 09:21:51;;;;;;;32.97;23.30;;;3.00;92.90;;;;;;5067829;28;20143;-44
2020/12/11 09:24:16;;;;;;;33.55;23.52;;;3.00;93.00;;;;;;5067026;28;20032;-43
2020/12/11 09:26:42;;;;;;;40.55;25.33;;;3.00;93.20;;;;;;5067686;28;20020;-43
2020/12/11 09:31:34;;;;;;;36.08;23.60;;;3.00;93.50;;;;;;5057207;28;20045;-43
2020/12/11 09:34:00;;;;;;;32.15;23.27;;;3.00;93.60;;;;;;5047647;28;20468;-43
2020/12/11 09:36:25;;;;;;;34.90;24.42;;;3.00;93.70;;;;;;5047235;28;20032;-44
2020/12/11 09:38:52;;;;;;;35.83;25.02;;;3.00;93.80;;;;;;5047093;28;20032;-44
2020/12/11 09:41:22;;;;;;;36.72;24.80;;;3.00;93.90;;;;;;5046963;28;20032;-44
2020/12/11 09:46:47;;;;;;;36.97;25.35;;;3.10;94.00;;;;;;5023671;28;20095;-42
2020/12/11 09:51:49;;;;;;;37.92;24.92;;;3.10;94.30;;;;;;5067287;28;20048;-43
2020/12/11 09:54:31;;;;;;;36.58;24.20;;;3.10;94.10;;;;;;5066698;28;20033;-44
2020/12/11 09:56:56;;;;;;;34.50;23.85;;;3.20;94.10;;;;;;5067760;28;20035;-42
2020/12/11 09:59:28;;;;;;;37.33;24.48;;;3.20;94.10;;;;;;5067278;28;20024;-43
2020/12/11 10:04:21;;;;;;;32.97;23.27;;;3.30;94.10;;;;;;5066401;28;20036;-43
2020/12/11 10:06:47;;;;;;;32.00;22.95;;;3.30;94.00;;;;;;5067216;28;20388;-43
2020/12/11 10:09:12;;;;;;;32.47;23.90;;;3.30;94.00;;;;;;5066602;28;20035;-43
2020/12/11 10:11:38;;;;;;;32.10;22.40;;;3.30;94.00;;;;;;5067407;28;20036;-43
2020/12/11 10:14:28;;;;;;;31.42;23.00;;;3.40;94.00;;;;;;5066905;28;20379;-43
2020/12/11 10:16:54;;;;;;;30.63;21.80;;;3.40;93.90;;;;;;5066837;28;20048;-44
2020/12/11 10:19:20;;;;;;;31.92;22.63;;;3.50;93.70;;;;;;5066079;28;20111;-43
2020/12/11 10:21:47;;;;;;;30.73;22.30;;;3.50;93.60;;;;;;5067190;28;20124;-43
2020/12/11 10:24:13;;;;;;;30.27;21.17;;;3.50;93.60;;;;;;5066408;28;20027;-44
2020/12/11 10:26:39;;;;;;;34.35;22.55;;;3.60;93.50;;;;;;5066629;28;20024;-43
2020/12/11 10:29:05;;;;;;;31.90;22.27;;;3.60;93.50;;;;;;5066901;28;20028;-43
2020/12/11 10:31:30;;;;;;;31.85;22.38;;;3.60;93.40;;;;;;5066234;28;20044;-43
2020/12/11 10:33:56;;;;;;;31.25;22.58;;;3.70;93.40;;;;;;5066387;28;20580;-43
2020/12/11 10:36:31;;;;;;;26.40;19.48;;;3.70;93.30;;;;;;5066439;28;20366;-43
2020/12/11 10:38:57;;;;;;;35.15;20.77;;;3.70;93.30;;;;;;5066785;28;20051;-44
2020/12/11 10:41:24;;;;;;;29.25;21.40;;;3.80;93.30;;;;;;5065870;28;20082;-42
2020/12/11 10:43:50;;;;;;;32.15;22.02;;;3.80;93.20;;;;;;5070455;28;20104;-43
2020/12/11 10:46:16;;;;;;;29.30;21.92;;;3.90;93.20;;;;;;5070211;28;20024;-43
2020/12/11 10:48:42;;;;;;;28.60;20.20;;;3.90;93.10;;;;;;5070659;28;20082;-43
2020/12/11 10:51:11;;;;;;;28.25;20.85;;;3.90;93.10;;;;;;5070719;28;20056;-44
2020/12/11 10:53:37;;;;;;;27.40;19.23;;;3.90;93.10;;;;;;5071114;28;20032;-44
2020/12/11 10:56:06;;;;;;;26.90;20.38;;;4.00;93.10;;;;;;5070457;28;20024;-43
2020/12/11 10:58:32;;;;;;;30.60;22.13;;;4.00;93.20;;;;;;5070287;28;20546;-42
2020/12/11 11:00:58;;;;;;;31.48;22.25;;;4.00;93.30;;;;;;5070876;28;20024;-43
2020/12/11 11:03:27;;;;;;;28.48;20.90;;;4.00;93.40;;;;;;5069392;28;20415;-43
2020/12/11 11:05:54;;;;;;;27.52;20.23;;;4.00;93.40;;;;;;5070625;28;20039;-43
2020/12/11 11:08:20;;;;;;;26.83;18.38;;;3.90;93.50;;;;;;5070265;28;20032;-43
2020/12/11 11:10:49;;;;;;;31.42;21.27;;;3.90;93.60;;;;;;5069968;28;20064;-43
2020/12/11 11:13:24;;;;;;;27.08;19.90;;;3.90;93.80;;;;;;5069957;28;20020;-43
2020/12/11 11:15:52;;;;;;;26.85;19.90;;;3.90;93.80;;;;;;5070270;28;20405;-44
2020/12/11 11:28:39;;;;;;;28.15;19.85;;;4.00;94.10;;;;;;5070132;28;20024;-43
2020/12/11 11:31:08;;;;;;;30.00;21.80;;;4.00;94.40;;;;;;5069628;28;20373;-43
2020/12/11 11:33:34;;;;;;;27.90;19.17;;;4.10;94.30;;;;;;5069646;28;20036;-44
2020/12/11 11:35:59;;;;;;;27.60;20.90;;;4.10;94.30;;;;;;5069851;28;20055;-44
2020/12/11 11:38:24;;;;;;;27.45;20.05;;;4.10;94.40;;;;;;5065596;28;20459;-43
2020/12/11 11:40:52;;;;;;;30.83;21.27;;;4.10;94.50;;;;;;5071689;28;20054;-43
2020/12/11 11:43:24;;;;;;;29.73;21.45;;;4.10;94.50;;;;;;5069607;28;20024;-42
2020/12/11 11:45:50;;;;;;;32.37;22.97;;;4.10;94.50;;;;;;5069577;28;20099;-43
2020/12/11 11:48:17;;;;;;;30.60;21.02;;;4.10;94.50;;;;;;5069636;28;20032;-42
2020/12/11 11:53:17;;;;;;;28.02;19.67;;;4.10;94.60;;;;;;5069658;28;20036;-43
2020/12/11 11:55:43;;;;;;;31.23;21.25;;;4.10;94.70;;;;;;5069016;28;20028;-43
2020/12/11 11:58:09;;;;;;;30.58;21.05;;;4.10;94.80;;;;;;5068827;28;20040;-43
2020/12/11 12:00:36;;;;;;;32.80;23.05;;;4.10;94.80;;;;;;5065450;28;20039;-44
2020/12/11 12:03:01;;;;;;;33.97;21.25;;;4.10;94.90;;;;;;5050324;28;20024;-44
2020/12/11 12:05:27;;;;;;;32.15;22.70;;;4.10;94.90;;;;;;5048949;28;20458;-43
2020/12/11 12:07:52;;;;;;;28.38;19.92;;;4.10;95.00;;;;;;5049351;28;20052;-42
2020/12/11 12:10:18;;;;;;;28.92;21.08;;;4.10;95.00;;;;;;5049046;28;20400;-43
2020/12/11 12:12:43;;;;;;;32.97;21.73;;;4.20;95.10;;;;;;5048990;28;20025;-43
2020/12/11 12:15:13;;;;;;;29.67;21.25;;;4.20;95.10;;;;;;5048905;28;20028;-43
2020/12/11 12:17:43;;;;;;;31.70;21.13;;;4.20;95.10;;;;;;5049506;28;20029;-43
2020/12/11 12:20:15;;;;;;;30.25;21.00;;;4.20;95.20;;;;;;5047989;28;20025;-43
2020/12/11 12:28:48;;;;;;;31.35;20.70;;;4.20;95.20;;;;;;5048679;28;20036;-44
2020/12/11 12:30:36;;;;;;;28.52;20.30;;;4.20;95.20;;;;;;5037961;28;20084;-43
2020/12/11 12:35:45;;;;;;;39.92;24.75;;;4.30;95.20;;;;;;5048934;28;20467;-43
2020/12/11 12:38:22;;;;;;;29.50;20.40;;;4.30;95.30;;;;;;5048099;28;20465;-44
2020/12/11 12:43:20;;;;;;;29.65;20.85;;;4.30;95.40;;;;;;5048550;28;20025;-43
2020/12/11 12:45:46;;;;;;;37.20;23.45;;;4.30;95.40;;;;;;5058030;28;20107;-45
2020/12/11 12:48:11;;;;;;;32.10;22.38;;;4.40;95.50;;;;;;5058014;28;20108;-43
2020/12/11 12:50:37;;;;;;;28.60;20.95;;;4.40;95.50;;;;;;5052846;28;20067;-43
2020/12/11 12:53:02;;;;;;;35.65;23.13;;;4.40;95.40;;;;;;5048702;28;20057;-44
2020/12/11 12:55:42;;;;;;;28.33;20.42;;;4.40;95.40;;;;;;5047261;28;20021;-44
2020/12/11 12:58:10;;;;;;;26.92;18.42;;;4.50;95.50;;;;;;5048196;28;20025;-43
2020/12/11 13:01:02;;;;;;;27.45;20.63;;;4.40;95.40;;;;;;5048513;28;20113;-43
2020/12/11 13:06:12;;;;;;;29.02;20.02;;;4.50;95.50;;;;;;5052181;28;20086;-44
2020/12/11 13:08:38;;;;;;;27.88;18.90;;;4.50;95.50;;;;;;5067851;28;20032;-43
2020/12/11 13:11:03;;;;;;;27.17;19.30;;;4.50;95.50;;;;;;5068160;28;20098;-44
2020/12/11 13:13:29;;;;;;;31.88;21.08;;;4.50;95.50;;;;;;5067758;28;20135;-44
2020/12/11 13:15:54;;;;;;;24.70;18.27;;;4.50;95.50;;;;;;5067096;28;20033;-44
2020/12/11 13:18:20;;;;;;;24.73;18.40;;;4.50;95.50;;;;;;5050077;28;20029;-43
2020/12/11 13:20:46;;;;;;;22.77;17.15;;;4.60;95.60;;;;;;5048373;28;20040;-43